createdAt,value
2022-12-11T00:00:57.727Z,100.00
2022-12-11T00:03:25.740Z,100.00
2022-12-11T00:05:53.733Z,100.00
2022-12-11T00:08:21.812Z,100.00
2022-12-11T00:10:50.486Z,100.00
2022-12-11T00:13:19.849Z,100.00
2022-12-11T00:15:47.829Z,100.00
2022-12-11T00:18:15.976Z,100.00
2022-12-11T00:20:44.105Z,100.00
2022-12-11T00:23:12.365Z,100.00
2022-12-11T00:25:43.924Z,100.00
2022-12-11T00:28:12.053Z,100.00
2022-12-11T00:30:42.872Z,100.00
2022-12-11T00:33:11.530Z,100.00
2022-12-11T00:35:40.141Z,100.00
2022-12-11T00:38:08.254Z,100.00
2022-12-11T00:40:37.032Z,100.00
2022-12-11T00:43:05.259Z,100.00
2022-12-11T00:45:36.701Z,100.00
2022-12-11T00:48:06.955Z,100.00
2022-12-11T00:50:35.654Z,100.00
2022-12-11T00:53:04.544Z,100.00
2022-12-11T00:55:32.694Z,100.00
2022-12-11T00:58:00.941Z,100.00
2022-12-11T01:00:28.848Z,100.00
2022-12-11T01:02:56.796Z,100.00
2022-12-11T01:05:26.201Z,100.00
2022-12-11T01:07:54.214Z,100.00
2022-12-11T01:10:27.155Z,100.00
2022-12-11T01:12:57.365Z,100.00
2022-12-11T01:15:27.729Z,100.00
2022-12-11T01:17:56.057Z,100.00
2022-12-11T01:20:26.937Z,100.00
2022-12-11T01:22:57.916Z,100.00
2022-12-11T01:25:26.265Z,100.00
2022-12-11T01:27:55.154Z,100.00
2022-12-11T01:30:25.085Z,100.00
2022-12-11T01:32:53.544Z,100.00
2022-12-11T01:35:21.931Z,100.00
2022-12-11T01:37:51.312Z,100.00
2022-12-11T01:40:21.037Z,100.00
2022-12-11T01:42:49.101Z,100.00
2022-12-11T01:45:36.551Z,100.00
2022-12-11T01:48:09.505Z,100.00
2022-12-11T01:50:41.195Z,100.00
2022-12-11T01:53:13.229Z,100.00
2022-12-11T01:55:42.341Z,100.00
2022-12-11T01:58:11.693Z,100.00
2022-12-11T02:00:40.290Z,100.00
2022-12-11T02:03:08.237Z,100.00
2022-12-11T02:05:36.172Z,100.00
2022-12-11T02:08:05.358Z,100.00
2022-12-11T02:10:44.805Z,100.00
2022-12-11T02:13:18.857Z,100.00
2022-12-11T02:15:53.274Z,100.00
2022-12-11T02:18:31.379Z,100.00
2022-12-11T02:21:07.072Z,100.00
2022-12-11T02:23:55.301Z,100.00
2022-12-11T02:26:41.778Z,100.00
2022-12-11T02:29:19.104Z,100.00
2022-12-11T02:31:51.914Z,100.00
2022-12-11T02:34:24.720Z,100.00
2022-12-11T02:36:57.403Z,100.00
2022-12-11T02:39:28.335Z,100.00
2022-12-11T02:41:57.694Z,100.00
2022-12-11T02:44:31.527Z,100.00
2022-12-11T02:47:00.412Z,100.00
2022-12-11T02:49:30.161Z,100.00
2022-12-11T02:52:00.375Z,100.00
2022-12-11T02:54:31.682Z,100.00
2022-12-11T02:57:04.838Z,100.00
2022-12-11T02:59:36.972Z,100.00
2022-12-11T03:02:06.159Z,100.00
2022-12-11T03:04:36.358Z,100.00
2022-12-11T03:07:12.186Z,100.00
2022-12-11T03:09:40.702Z,100.00
2022-12-11T03:12:11.239Z,100.00
2022-12-11T03:14:42.734Z,100.00
2022-12-11T03:17:16.573Z,100.00
2022-12-11T03:19:51.284Z,100.00
2022-12-11T03:22:24.586Z,100.00
2022-12-11T03:24:55.632Z,100.00
2022-12-11T03:27:28.061Z,100.00
2022-12-11T03:30:01.516Z,100.00
2022-12-11T03:32:33.011Z,100.00
2022-12-11T03:35:04.731Z,100.00
2022-12-11T03:37:37.752Z,100.00
2022-12-11T03:40:11.360Z,100.00
2022-12-11T03:42:41.132Z,100.00
2022-12-11T03:45:12.114Z,100.00
2022-12-11T03:47:42.189Z,100.00
2022-12-11T03:50:13.133Z,100.00
2022-12-11T03:52:45.964Z,100.00
2022-12-11T03:55:17.254Z,100.00
2022-12-11T03:57:45.785Z,100.00
2022-12-11T04:00:18.297Z,100.00
2022-12-11T04:03:12.713Z,100.00
2022-12-11T04:05:41.822Z,100.00
2022-12-11T04:08:09.891Z,100.00
2022-12-11T04:10:37.934Z,100.00
2022-12-11T04:13:06.114Z,100.00
2022-12-11T04:15:34.686Z,100.00
2022-12-11T04:18:20.296Z,100.00
2022-12-11T04:21:05.832Z,100.00
2022-12-11T04:23:51.168Z,100.00
2022-12-11T04:26:21.382Z,100.00
2022-12-11T04:28:50.444Z,100.00
2022-12-11T04:31:21.615Z,100.00
2022-12-11T04:33:50.074Z,100.00
2022-12-11T04:36:18.071Z,100.00
2022-12-11T04:38:46.091Z,100.00
2022-12-11T04:41:16.761Z,100.00
2022-12-11T04:43:45.507Z,100.00
2022-12-11T04:46:15.986Z,100.00
2022-12-11T04:48:46.247Z,100.00
2022-12-11T04:51:14.254Z,98.92
2022-12-11T04:53:42.556Z,97.26
2022-12-11T04:56:12.665Z,96.13
2022-12-11T04:58:41.395Z,95.19
2022-12-11T05:01:10.333Z,94.45
2022-12-11T05:03:38.898Z,92.76
2022-12-11T05:06:09.609Z,92.37
2022-12-11T05:08:40.392Z,92.37
2022-12-11T05:11:10.266Z,92.29
2022-12-11T05:13:38.369Z,91.49
2022-12-11T05:16:07.205Z,91.78
2022-12-11T05:18:35.303Z,93.31
2022-12-11T05:21:05.768Z,95.46
2022-12-11T05:23:35.401Z,94.66
2022-12-11T05:26:05.601Z,94.67
2022-12-11T05:28:35.770Z,94.93
2022-12-11T05:31:05.975Z,95.98
2022-12-11T05:33:34.305Z,98.98
2022-12-11T05:36:02.613Z,100.00
2022-12-11T05:38:41.192Z,100.00
2022-12-11T05:41:09.215Z,99.91
2022-12-11T05:43:37.959Z,100.00
2022-12-11T05:46:09.761Z,100.00
2022-12-11T05:48:38.811Z,100.00
2022-12-11T05:51:08.370Z,100.00
2022-12-11T05:53:37.721Z,100.00
2022-12-11T05:56:09.397Z,100.00
2022-12-11T05:58:37.296Z,100.00
2022-12-11T06:01:09.926Z,100.00
2022-12-11T06:03:38.203Z,100.00
2022-12-11T06:06:07.469Z,100.00
2022-12-11T06:08:35.729Z,100.00
2022-12-11T06:11:04.333Z,100.00
2022-12-11T06:13:33.752Z,100.00
2022-12-11T06:16:03.534Z,100.00
2022-12-11T06:18:31.736Z,100.00
2022-12-11T06:20:59.752Z,100.00
2022-12-11T06:23:27.632Z,100.00
2022-12-11T06:25:55.601Z,100.00
2022-12-11T06:28:23.527Z,100.00
2022-12-11T06:30:52.810Z,100.00
2022-12-11T06:33:20.746Z,100.00
2022-12-11T06:35:48.816Z,100.00
2022-12-11T06:38:17.506Z,100.00
2022-12-11T06:40:45.469Z,100.00
2022-12-11T06:43:13.417Z,100.00
2022-12-11T06:45:41.514Z,100.00
2022-12-11T06:48:10.802Z,100.00
2022-12-11T06:50:39.441Z,100.00
2022-12-11T06:53:07.492Z,100.00
2022-12-11T06:55:36.263Z,100.00
2022-12-11T06:58:04.457Z,100.00
2022-12-11T07:00:32.942Z,100.00
2022-12-11T07:03:00.855Z,100.00
2022-12-11T07:05:30.196Z,100.00
2022-12-11T07:07:58.317Z,100.00
2022-12-11T07:10:26.882Z,100.00
2022-12-11T07:12:55.187Z,100.00
2022-12-11T07:15:23.130Z,100.00
2022-12-11T07:17:51.397Z,100.00
2022-12-11T07:20:19.352Z,100.00
2022-12-11T07:22:48.672Z,100.00
2022-12-11T07:25:16.777Z,100.00
2022-12-11T07:27:44.715Z,100.00
2022-12-11T07:30:13.779Z,99.97
2022-12-11T07:32:41.738Z,99.77
2022-12-11T07:35:10.848Z,100.00
2022-12-11T07:37:41.774Z,100.00
2022-12-11T07:40:18.731Z,100.00
2022-12-11T07:42:46.667Z,99.45
2022-12-11T07:45:14.887Z,98.39
2022-12-11T07:47:42.928Z,97.04
2022-12-11T07:50:11.207Z,96.35
2022-12-11T07:52:39.178Z,95.88
2022-12-11T07:55:07.564Z,96.09
2022-12-11T07:57:36.936Z,95.52
2022-12-11T08:00:06.340Z,95.55
2022-12-11T08:02:37.407Z,95.52
2022-12-11T08:05:06.234Z,94.52
2022-12-11T08:07:35.795Z,94.31
2022-12-11T08:10:04.784Z,93.99
2022-12-11T08:12:32.866Z,92.97
2022-12-11T08:15:02.243Z,93.17
2022-12-11T08:17:33.919Z,92.17
2022-12-11T08:20:05.532Z,94.41
2022-12-11T08:22:33.473Z,94.13
2022-12-11T08:25:01.387Z,93.58
2022-12-11T08:27:29.289Z,94.11
2022-12-11T08:29:57.246Z,94.11
2022-12-11T08:32:26.566Z,92.75
2022-12-11T08:34:54.439Z,91.29
2022-12-11T08:37:22.427Z,91.47
2022-12-11T08:39:50.446Z,90.91
2022-12-11T08:42:18.503Z,90.33
2022-12-11T08:44:46.621Z,88.26
2022-12-11T08:47:15.421Z,86.81
2022-12-11T08:49:44.711Z,87.48
2022-12-11T08:52:12.631Z,86.51
2022-12-11T08:54:40.647Z,87.81
2022-12-11T08:57:08.612Z,86.43
2022-12-11T08:59:36.520Z,86.73
2022-12-11T09:02:04.488Z,86.13
2022-12-11T09:04:32.459Z,86.71
2022-12-11T09:07:01.810Z,85.69
2022-12-11T09:09:29.753Z,85.47
2022-12-11T09:11:57.790Z,84.68
2022-12-11T09:14:25.730Z,84.32
2022-12-11T09:16:53.659Z,83.80
2022-12-11T09:19:21.618Z,83.03
2022-12-11T09:21:49.732Z,82.06
2022-12-11T09:24:19.043Z,81.91
2022-12-11T09:26:47.291Z,80.89
2022-12-11T09:29:15.266Z,81.67
2022-12-11T09:31:43.314Z,80.43
2022-12-11T09:34:14.011Z,80.04
2022-12-11T09:36:44.307Z,79.49
2022-12-11T09:39:14.491Z,79.88
2022-12-11T09:41:50.804Z,80.76
2022-12-11T09:44:41.000Z,79.10
2022-12-11T09:47:20.357Z,77.98
2022-12-11T09:49:52.673Z,75.67
2022-12-11T09:52:29.802Z,74.63
2022-12-11T09:55:02.067Z,74.75
2022-12-11T09:57:40.540Z,75.65
2022-12-11T10:00:19.986Z,72.26
2022-12-11T10:03:11.160Z,73.67
2022-12-11T10:05:48.719Z,74.37
2022-12-11T10:08:24.750Z,75.02
2022-12-11T10:10:59.706Z,74.89
2022-12-11T10:13:34.688Z,74.98
2022-12-11T10:16:13.127Z,73.41
2022-12-11T10:18:42.265Z,73.70
2022-12-11T10:21:11.818Z,73.23
2022-12-11T10:23:45.257Z,73.02
2022-12-11T10:26:18.472Z,73.42
2022-12-11T10:28:47.846Z,72.02
2022-12-11T10:31:19.188Z,72.13
2022-12-11T10:33:57.636Z,72.09
2022-12-11T10:36:30.228Z,72.25
2022-12-11T10:38:58.744Z,72.33
2022-12-11T10:41:37.797Z,72.75
2022-12-11T10:44:17.845Z,72.81
2022-12-11T10:46:46.381Z,72.31
2022-12-11T10:49:24.567Z,72.99
2022-12-11T10:51:53.926Z,72.62
2022-12-11T10:54:34.757Z,70.86
2022-12-11T10:57:04.243Z,70.41
2022-12-11T10:59:38.010Z,68.97
2022-12-11T11:02:07.666Z,69.11
2022-12-11T11:04:39.122Z,68.24
2022-12-11T11:07:15.212Z,67.80
2022-12-11T11:09:43.173Z,67.95
2022-12-11T11:12:22.927Z,68.31
2022-12-11T11:15:01.935Z,68.35
2022-12-11T11:17:35.155Z,68.77
2022-12-11T11:20:13.158Z,69.43
2022-12-11T11:22:45.601Z,69.36
2022-12-11T11:25:19.594Z,68.99
2022-12-11T11:27:54.023Z,68.30
2022-12-11T11:30:25.633Z,67.60
2022-12-11T11:32:56.349Z,67.87
2022-12-11T11:35:26.644Z,67.91
2022-12-11T11:38:04.592Z,68.96
2022-12-11T11:40:37.988Z,67.89
2022-12-11T11:43:15.327Z,67.95
2022-12-11T11:45:48.757Z,68.18
2022-12-11T11:48:31.895Z,67.61
2022-12-11T11:51:00.502Z,66.46
2022-12-11T11:53:37.309Z,65.94
2022-12-11T11:56:18.363Z,65.61
2022-12-11T11:58:51.571Z,67.06
2022-12-11T12:01:22.005Z,67.03
2022-12-11T12:03:50.953Z,67.12
2022-12-11T12:06:30.036Z,67.35
2022-12-11T12:09:06.548Z,67.47
2022-12-11T12:11:42.025Z,67.69
2022-12-11T12:14:50.501Z,69.02
2022-12-11T12:17:19.559Z,66.96
2022-12-11T12:19:56.456Z,66.23
2022-12-11T12:22:42.227Z,66.90
2022-12-11T12:25:19.983Z,65.36
2022-12-11T12:27:54.218Z,66.71
2022-12-11T12:30:23.813Z,66.98
2022-12-11T12:33:11.922Z,67.46
2022-12-11T12:35:44.573Z,68.16
2022-12-11T12:38:18.874Z,68.88
2022-12-11T12:40:57.738Z,69.00
2022-12-11T12:43:48.652Z,69.37
2022-12-11T12:46:27.315Z,69.75
2022-12-11T12:48:59.983Z,69.88
2022-12-11T12:51:29.081Z,70.15
2022-12-11T12:54:00.348Z,70.16
2022-12-11T12:56:30.436Z,70.09
2022-12-11T12:58:58.434Z,70.69
2022-12-11T13:01:28.575Z,70.31
2022-12-11T13:04:02.113Z,70.92
2022-12-11T13:06:37.036Z,73.45
2022-12-11T13:09:16.128Z,73.97
2022-12-11T13:11:44.360Z,74.87
2022-12-11T13:14:28.542Z,74.43
2022-12-11T13:17:09.472Z,75.56
2022-12-11T13:19:42.732Z,75.14
2022-12-11T13:22:23.437Z,75.11
2022-12-11T13:25:01.658Z,74.93
2022-12-11T13:27:39.403Z,73.97
2022-12-11T13:30:21.839Z,72.67
2022-12-11T13:32:59.847Z,72.56
2022-12-11T13:35:30.346Z,73.29
2022-12-11T13:38:02.709Z,73.56
2022-12-11T13:40:37.990Z,74.91
2022-12-11T13:43:09.515Z,75.02
2022-12-11T13:45:44.723Z,75.58
2022-12-11T13:48:20.486Z,75.08
2022-12-11T13:50:51.923Z,76.49
2022-12-11T13:53:22.235Z,76.57
2022-12-11T13:55:58.617Z,75.04
2022-12-11T13:58:26.803Z,75.55
2022-12-11T14:01:04.137Z,75.56
2022-12-11T14:03:32.975Z,75.37
2022-12-11T14:06:03.173Z,75.51
2022-12-11T14:08:37.270Z,75.30
2022-12-11T14:11:06.324Z,75.22
2022-12-11T14:13:36.562Z,78.20
2022-12-11T14:16:07.764Z,77.81
2022-12-11T14:18:37.873Z,78.80
2022-12-11T14:21:07.822Z,77.68
2022-12-11T14:23:37.452Z,79.93
2022-12-11T14:26:16.500Z,81.42
2022-12-11T14:28:44.959Z,80.32
2022-12-11T14:31:16.987Z,77.12
2022-12-11T14:33:49.031Z,78.30
2022-12-11T14:36:18.776Z,76.91
2022-12-11T14:38:50.594Z,74.56
2022-12-11T14:41:24.312Z,68.58
2022-12-11T14:43:55.872Z,65.32
2022-12-11T14:46:30.668Z,64.38
2022-12-11T14:49:26.006Z,62.06
2022-12-11T14:51:58.550Z,62.21
2022-12-11T14:54:32.874Z,60.93
2022-12-11T14:57:02.947Z,59.57
2022-12-11T14:59:33.134Z,58.94
2022-12-11T15:02:03.109Z,59.00
2022-12-11T15:04:33.050Z,59.79
2022-12-11T15:07:02.420Z,58.35
2022-12-11T15:09:37.861Z,58.12
2022-12-11T15:12:12.478Z,57.81
2022-12-11T15:14:46.884Z,57.42
2022-12-11T15:17:31.764Z,57.10
2022-12-11T15:20:07.511Z,57.79
2022-12-11T15:22:37.642Z,57.63
2022-12-11T15:25:06.499Z,57.90
2022-12-11T15:27:37.031Z,57.63
2022-12-11T15:30:17.784Z,57.83
2022-12-11T15:32:45.733Z,58.27
2022-12-11T15:35:24.703Z,58.45
2022-12-11T15:37:56.149Z,58.48
2022-12-11T15:40:24.950Z,59.07
2022-12-11T15:42:54.892Z,61.63
2022-12-11T15:45:24.830Z,64.14
2022-12-11T15:47:53.307Z,63.86
2022-12-11T15:50:23.437Z,63.81
2022-12-11T15:52:52.758Z,63.26
2022-12-11T15:55:24.237Z,63.71
2022-12-11T15:57:55.259Z,64.23
2022-12-11T16:00:23.962Z,64.39
2022-12-11T16:02:52.233Z,64.44
2022-12-11T16:05:20.526Z,64.67
2022-12-11T16:07:49.368Z,63.67
2022-12-11T16:10:19.462Z,63.48
2022-12-11T16:12:48.746Z,63.84
2022-12-11T16:15:23.155Z,63.25
2022-12-11T16:17:51.925Z,63.18
2022-12-11T16:20:20.118Z,62.95
2022-12-11T16:22:48.010Z,62.79
2022-12-11T16:25:16.090Z,62.51
2022-12-11T16:27:44.083Z,61.46
2022-12-11T16:30:15.074Z,61.81
2022-12-11T16:32:43.738Z,62.07
2022-12-11T16:35:11.946Z,62.03
2022-12-11T16:37:40.213Z,62.06
2022-12-11T16:40:09.719Z,62.29
2022-12-11T16:42:39.036Z,61.89
2022-12-11T16:45:09.553Z,62.51
2022-12-11T16:47:39.145Z,63.03
2022-12-11T16:50:08.094Z,63.47
2022-12-11T16:52:36.171Z,63.87
2022-12-11T16:55:04.203Z,63.98
2022-12-11T16:57:32.637Z,64.21
2022-12-11T17:00:04.203Z,64.37
2022-12-11T17:02:32.354Z,64.45
2022-12-11T17:05:01.667Z,64.60
2022-12-11T17:07:29.718Z,64.94
2022-12-11T17:09:57.649Z,66.89
2022-12-11T17:12:27.789Z,71.45
2022-12-11T17:14:55.783Z,75.05
2022-12-11T17:17:24.234Z,76.67
2022-12-11T17:19:52.207Z,77.65
2022-12-11T17:22:21.880Z,78.33
2022-12-11T17:24:49.900Z,79.15
2022-12-11T17:27:18.087Z,78.26
2022-12-11T17:29:47.406Z,78.79
2022-12-11T17:32:16.714Z,78.17
2022-12-11T17:34:44.834Z,78.49
2022-12-11T17:37:13.162Z,78.34
2022-12-11T17:39:42.458Z,78.64
2022-12-11T17:42:10.435Z,77.74
2022-12-11T17:44:38.999Z,77.72
2022-12-11T17:47:11.089Z,77.92
2022-12-11T17:49:39.487Z,78.20
2022-12-11T17:52:07.745Z,77.54
2022-12-11T17:54:36.157Z,77.87
2022-12-11T17:57:06.680Z,77.58
2022-12-11T17:59:34.988Z,76.91
2022-12-11T18:02:02.977Z,77.13
2022-12-11T18:04:31.243Z,74.71
2022-12-11T18:06:59.548Z,74.38
2022-12-11T18:09:27.415Z,73.75
2022-12-11T18:11:55.705Z,73.84
2022-12-11T18:14:25.542Z,74.95
2022-12-11T18:16:53.726Z,75.17
2022-12-11T18:19:22.790Z,74.66
2022-12-11T18:21:50.822Z,75.53
2022-12-11T18:24:18.764Z,75.88
2022-12-11T18:26:46.758Z,75.75
2022-12-11T18:29:14.760Z,77.42
2022-12-11T18:31:44.040Z,78.90
2022-12-11T18:34:12.393Z,79.66
2022-12-11T18:36:41.664Z,79.66
2022-12-11T18:39:09.756Z,78.60
2022-12-11T18:41:37.840Z,78.46
2022-12-11T18:44:09.706Z,77.54
2022-12-11T18:46:39.979Z,78.09
2022-12-11T18:49:09.329Z,78.60
2022-12-11T18:51:37.328Z,78.59
2022-12-11T18:54:05.499Z,77.86
2022-12-11T18:56:33.486Z,77.10
2022-12-11T18:59:01.421Z,77.76
2022-12-11T19:01:30.313Z,78.09
2022-12-11T19:04:04.452Z,76.62
2022-12-11T19:06:35.730Z,76.35
2022-12-11T19:09:05.908Z,76.55
2022-12-11T19:11:35.988Z,77.10
2022-12-11T19:14:06.103Z,77.12
2022-12-11T19:16:35.958Z,75.59
2022-12-11T19:19:06.901Z,74.22
2022-12-11T19:21:37.694Z,75.28
2022-12-11T19:24:06.770Z,75.22
2022-12-11T19:26:35.182Z,74.63
2022-12-11T19:29:03.176Z,75.53
2022-12-11T19:31:33.709Z,76.19
2022-12-11T19:34:03.131Z,76.87
2022-12-11T19:36:33.641Z,76.21
2022-12-11T19:39:07.105Z,75.66
2022-12-11T19:41:38.044Z,76.33
2022-12-11T19:44:06.101Z,76.89
2022-12-11T19:46:34.046Z,77.41
2022-12-11T19:49:02.454Z,76.81
2022-12-11T19:51:33.880Z,76.57
2022-12-11T19:54:04.106Z,75.29
2022-12-11T19:56:33.638Z,75.11
2022-12-11T19:59:02.961Z,74.90
2022-12-11T20:01:33.360Z,74.51
2022-12-11T20:04:03.904Z,74.72
2022-12-11T20:06:33.890Z,74.11
2022-12-11T20:09:04.163Z,74.53
2022-12-11T20:11:33.109Z,74.83
2022-12-11T20:14:01.497Z,73.46
2022-12-11T20:17:01.573Z,74.27
2022-12-11T20:19:17.829Z,73.84
2022-12-11T20:21:45.845Z,73.43
2022-12-11T20:24:15.174Z,73.99
2022-12-11T20:26:43.155Z,74.32
2022-12-11T20:29:11.091Z,73.91
2022-12-11T20:31:39.348Z,72.52
2022-12-11T20:34:07.857Z,72.97
2022-12-11T20:36:36.369Z,73.22
2022-12-11T20:39:06.215Z,73.53
2022-12-11T20:41:35.625Z,73.25
2022-12-11T20:44:03.695Z,72.60
2022-12-11T20:46:31.713Z,72.51
2022-12-11T20:48:59.787Z,71.83
2022-12-11T20:51:36.610Z,71.65
2022-12-11T20:54:04.843Z,71.65
2022-12-11T20:56:32.905Z,70.86
2022-12-11T20:59:02.436Z,71.46
2022-12-11T21:01:32.501Z,72.00
2022-12-11T21:04:02.462Z,71.71
2022-12-11T21:06:32.172Z,72.37
2022-12-11T21:09:01.373Z,72.02
2022-12-11T21:11:29.545Z,70.45
2022-12-11T21:13:58.174Z,70.55
2022-12-11T21:16:27.829Z,71.10
2022-12-11T21:18:56.386Z,71.75
2022-12-11T21:21:24.866Z,71.48
2022-12-11T21:23:52.909Z,72.50
2022-12-11T21:26:21.389Z,72.90
2022-12-11T21:28:49.312Z,72.90
2022-12-11T21:31:19.018Z,72.90
2022-12-11T21:33:49.345Z,73.18
2022-12-11T21:36:18.093Z,72.75
2022-12-11T21:38:47.286Z,72.96
2022-12-11T21:41:18.068Z,72.83
2022-12-11T21:44:49.823Z,73.74
2022-12-11T21:46:35.501Z,73.89
2022-12-11T21:49:05.129Z,74.11
2022-12-11T21:51:37.897Z,75.43
2022-12-11T21:54:10.383Z,76.29
2022-12-11T21:56:38.298Z,76.53
2022-12-11T21:59:06.700Z,77.75
2022-12-11T22:01:38.238Z,77.10
2022-12-11T22:04:08.614Z,77.44
2022-12-11T22:06:36.755Z,78.34
2022-12-11T22:09:05.432Z,77.49
2022-12-11T22:11:35.545Z,78.11
2022-12-11T22:14:04.091Z,78.08
2022-12-11T22:16:32.105Z,77.21
2022-12-11T22:19:00.100Z,78.21
2022-12-11T22:21:29.457Z,78.49
2022-12-11T22:23:57.506Z,79.51
2022-12-11T22:26:27.938Z,79.08
2022-12-11T22:28:56.930Z,79.33
2022-12-11T22:31:27.118Z,79.52
2022-12-11T22:33:56.113Z,80.76
2022-12-11T22:36:25.288Z,80.76
2022-12-11T22:38:54.833Z,79.96
2022-12-11T22:41:26.286Z,80.76
2022-12-11T22:43:55.072Z,81.70
2022-12-11T22:46:26.096Z,81.43
2022-12-11T22:48:54.557Z,80.74
2022-12-11T22:51:23.316Z,81.16
2022-12-11T22:53:51.540Z,82.44
2022-12-11T22:56:20.882Z,82.61
2022-12-11T22:58:48.851Z,82.62
2022-12-11T23:01:19.592Z,83.18
2022-12-11T23:03:47.642Z,83.75
2022-12-11T23:06:18.911Z,83.99
2022-12-11T23:08:46.906Z,83.65
2022-12-11T23:11:16.721Z,82.63
2022-12-11T23:13:46.084Z,81.88
2022-12-11T23:16:14.416Z,81.97
2022-12-11T23:18:42.916Z,81.88
2022-12-11T23:21:12.070Z,80.88
2022-12-11T23:23:40.713Z,80.25
2022-12-11T23:26:10.779Z,79.87
2022-12-11T23:28:39.178Z,80.10
2022-12-11T23:31:09.083Z,80.87
2022-12-11T23:33:37.079Z,80.85
2022-12-11T23:36:05.289Z,81.15
2022-12-11T23:38:33.563Z,80.16
2022-12-11T23:41:03.202Z,79.86
2022-12-11T23:43:31.345Z,79.67
2022-12-11T23:45:59.327Z,79.75
2022-12-11T23:48:28.650Z,79.21
2022-12-11T23:51:00.464Z,78.96
2022-12-11T23:53:28.434Z,79.03
2022-12-11T23:55:56.565Z,78.82
2022-12-11T23:58:24.461Z,79.59
